sensor_id;sensor_type;location;lat;lon;timestamp;P1;durP1;ratioP1;P2;durP2;ratioP2
5209;SDS011;2624;48.048;11.706;2023-08-17T00:01:42;3.47;;;3.17;;
5209;SDS011;2624;48.048;11.706;2023-08-17T00:06:44;10.17;;;2.90;;
5209;SDS011;2624;48.048;11.706;2023-08-17T00:11:48;3.50;;;3.20;;
5209;SDS011;2624;48.048;11.706;2023-08-17T00:16:50;2.93;;;2.73;;
5209;SDS011;2624;48.048;11.706;2023-08-17T00:21:53;3.40;;;3.20;;
5209;SDS011;2624;48.048;11.706;2023-08-17T00:26:57;3.60;;;3.40;;
5209;SDS011;2624;48.048;11.706;2023-08-17T00:31:59;3.50;;;3.30;;
5209;SDS011;2624;48.048;11.706;2023-08-17T00:37:01;5.03;;;3.40;;
5209;SDS011;2624;48.048;11.706;2023-08-17T00:42:04;4.70;;;4.30;;
5209;SDS011;2624;48.048;11.706;2023-08-17T00:47:08;5.47;;;4.00;;
5209;SDS011;2624;48.048;11.706;2023-08-17T00:52:09;4.37;;;3.97;;
5209;SDS011;2624;48.048;11.706;2023-08-17T00:57:13;4.53;;;3.90;;
5209;SDS011;2624;48.048;11.706;2023-08-17T01:02:15;3.50;;;3.20;;
5209;SDS011;2624;48.048;11.706;2023-08-17T01:07:19;6.80;;;4.20;;
5209;SDS011;2624;48.048;11.706;2023-08-17T01:12:29;4.10;;;3.37;;
5209;SDS011;2624;48.048;11.706;2023-08-17T01:17:33;4.30;;;3.60;;
5209;SDS011;2624;48.048;11.706;2023-08-17T01:22:38;3.57;;;3.37;;
5209;SDS011;2624;48.048;11.706;2023-08-17T01:27:44;3.90;;;3.70;;
5209;SDS011;2624;48.048;11.706;2023-08-17T01:32:48;6.93;;;4.27;;
5209;SDS011;2624;48.048;11.706;2023-08-17T01:37:56;6.10;;;4.50;;
5209;SDS011;2624;48.048;11.706;2023-08-17T01:43:02;3.97;;;3.67;;
5209;SDS011;2624;48.048;11.706;2023-08-17T01:48:04;3.90;;;3.70;;
5209;SDS011;2624;48.048;11.706;2023-08-17T01:53:06;4.27;;;4.00;;
5209;SDS011;2624;48.048;11.706;2023-08-17T01:58:11;5.70;;;4.60;;
5209;SDS011;2624;48.048;11.706;2023-08-17T02:03:13;6.23;;;4.87;;
5209;SDS011;2624;48.048;11.706;2023-08-17T02:08:14;4.10;;;3.80;;
5209;SDS011;2624;48.048;11.706;2023-08-17T02:13:18;5.80;;;4.40;;
5209;SDS011;2624;48.048;11.706;2023-08-17T02:18:20;4.63;;;4.23;;
5209;SDS011;2624;48.048;11.706;2023-08-17T02:23:21;4.73;;;4.23;;
5209;SDS011;2624;48.048;11.706;2023-08-17T02:28:25;5.50;;;5.07;;
5209;SDS011;2624;48.048;11.706;2023-08-17T02:33:26;5.10;;;4.50;;
5209;SDS011;2624;48.048;11.706;2023-08-17T02:38:28;4.37;;;3.97;;
5209;SDS011;2624;48.048;11.706;2023-08-17T02:43:32;4.53;;;4.13;;
5209;SDS011;2624;48.048;11.706;2023-08-17T02:48:33;4.80;;;4.40;;
5209;SDS011;2624;48.048;11.706;2023-08-17T02:53:35;4.77;;;4.20;;
5209;SDS011;2624;48.048;11.706;2023-08-17T02:58:39;5.47;;;4.70;;
5209;SDS011;2624;48.048;11.706;2023-08-17T03:03:41;4.47;;;4.17;;
5209;SDS011;2624;48.048;11.706;2023-08-17T03:08:42;5.03;;;4.63;;
5209;SDS011;2624;48.048;11.706;2023-08-17T03:13:46;8.53;;;4.70;;
5209;SDS011;2624;48.048;11.706;2023-08-17T03:18:48;4.60;;;4.30;;
5209;SDS011;2624;48.048;11.706;2023-08-17T03:23:50;5.53;;;4.93;;
5209;SDS011;2624;48.048;11.706;2023-08-17T03:28:54;8.00;;;4.67;;
5209;SDS011;2624;48.048;11.706;2023-08-17T03:33:56;9.00;;;4.13;;
5209;SDS011;2624;48.048;11.706;2023-08-17T03:38:59;5.03;;;4.63;;
5209;SDS011;2624;48.048;11.706;2023-08-17T03:44:02;6.10;;;4.30;;
5209;SDS011;2624;48.048;11.706;2023-08-17T03:49:06;4.77;;;4.37;;
5209;SDS011;2624;48.048;11.706;2023-08-17T03:54:07;4.47;;;4.17;;
5209;SDS011;2624;48.048;11.706;2023-08-17T03:59:10;4.40;;;4.10;;
5209;SDS011;2624;48.048;11.706;2023-08-17T04:04:12;5.20;;;4.70;;
5209;SDS011;2624;48.048;11.706;2023-08-17T04:09:14;4.33;;;4.03;;
5209;SDS011;2624;48.048;11.706;2023-08-17T04:14:17;3.70;;;3.40;;
5209;SDS011;2624;48.048;11.706;2023-08-17T04:19:19;4.70;;;4.23;;
5209;SDS011;2624;48.048;11.706;2023-08-17T04:24:20;7.60;;;5.07;;
5209;SDS011;2624;48.048;11.706;2023-08-17T04:29:24;5.60;;;5.10;;
5209;SDS011;2624;48.048;11.706;2023-08-17T04:34:25;5.50;;;4.67;;
5209;SDS011;2624;48.048;11.706;2023-08-17T04:39:27;4.80;;;4.40;;
5209;SDS011;2624;48.048;11.706;2023-08-17T04:44:30;6.27;;;5.67;;
5209;SDS011;2624;48.048;11.706;2023-08-17T04:49:32;5.07;;;4.70;;
5209;SDS011;2624;48.048;11.706;2023-08-17T04:54:34;4.60;;;4.30;;
5209;SDS011;2624;48.048;11.706;2023-08-17T04:59:37;6.67;;;4.53;;
5209;SDS011;2624;48.048;11.706;2023-08-17T05:04:39;5.20;;;4.77;;
5209;SDS011;2624;48.048;11.706;2023-08-17T05:09:42;4.80;;;4.50;;
5209;SDS011;2624;48.048;11.706;2023-08-17T05:14:45;4.70;;;4.30;;
5209;SDS011;2624;48.048;11.706;2023-08-17T05:19:46;8.10;;;4.90;;
5209;SDS011;2624;48.048;11.706;2023-08-17T05:24:48;6.33;;;5.60;;
5209;SDS011;2624;48.048;11.706;2023-08-17T05:29:51;5.03;;;4.73;;
5209;SDS011;2624;48.048;11.706;2023-08-17T05:34:53;6.37;;;5.70;;
5209;SDS011;2624;48.048;11.706;2023-08-17T05:39:55;5.10;;;4.63;;
5209;SDS011;2624;48.048;11.706;2023-08-17T05:44:58;6.33;;;5.03;;
5209;SDS011;2624;48.048;11.706;2023-08-17T05:50:00;4.60;;;4.03;;
5209;SDS011;2624;48.048;11.706;2023-08-17T05:55:02;6.00;;;5.53;;
5209;SDS011;2624;48.048;11.706;2023-08-17T06:00:06;7.07;;;5.57;;
5209;SDS011;2624;48.048;11.706;2023-08-17T06:05:10;5.40;;;5.00;;
5209;SDS011;2624;48.048;11.706;2023-08-17T06:10:12;5.73;;;5.17;;
5209;SDS011;2624;48.048;11.706;2023-08-17T06:15:15;6.97;;;5.50;;
5209;SDS011;2624;48.048;11.706;2023-08-17T06:20:17;6.60;;;4.40;;
5209;SDS011;2624;48.048;11.706;2023-08-17T06:25:19;4.67;;;4.20;;
5209;SDS011;2624;48.048;11.706;2023-08-17T06:30:22;5.63;;;4.53;;
5209;SDS011;2624;48.048;11.706;2023-08-17T06:35:24;4.33;;;4.03;;
5209;SDS011;2624;48.048;11.706;2023-08-17T06:40:27;4.13;;;3.83;;
5209;SDS011;2624;48.048;11.706;2023-08-17T06:45:30;4.60;;;4.20;;
5209;SDS011;2624;48.048;11.706;2023-08-17T06:50:32;4.40;;;4.10;;
5209;SDS011;2624;48.048;11.706;2023-08-17T06:55:34;4.23;;;3.33;;
5209;SDS011;2624;48.048;11.706;2023-08-17T07:00:37;3.00;;;2.80;;
5209;SDS011;2624;48.048;11.706;2023-08-17T07:05:40;5.33;;;4.73;;
5209;SDS011;2624;48.048;11.706;2023-08-17T07:10:42;4.30;;;4.00;;
5209;SDS011;2624;48.048;11.706;2023-08-17T07:15:46;4.50;;;4.20;;
5209;SDS011;2624;48.048;11.706;2023-08-17T07:20:47;4.57;;;4.17;;
5209;SDS011;2624;48.048;11.706;2023-08-17T07:25:49;5.50;;;5.00;;
5209;SDS011;2624;48.048;11.706;2023-08-17T07:30:53;5.47;;;5.07;;
5209;SDS011;2624;48.048;11.706;2023-08-17T07:35:54;5.20;;;4.17;;
5209;SDS011;2624;48.048;11.706;2023-08-17T07:40:58;5.93;;;5.43;;
5209;SDS011;2624;48.048;11.706;2023-08-17T07:46:01;5.93;;;5.43;;
5209;SDS011;2624;48.048;11.706;2023-08-17T07:51:03;8.00;;;5.27;;
5209;SDS011;2624;48.048;11.706;2023-08-17T07:56:04;5.33;;;4.83;;
5209;SDS011;2624;48.048;11.706;2023-08-17T08:01:07;3.77;;;3.57;;
5209;SDS011;2624;48.048;11.706;2023-08-17T08:06:09;3.70;;;3.50;;
5209;SDS011;2624;48.048;11.706;2023-08-17T08:11:11;3.60;;;3.30;;
5209;SDS011;2624;48.048;11.706;2023-08-17T08:16:14;4.23;;;3.93;;
5209;SDS011;2624;48.048;11.706;2023-08-17T08:21:16;3.33;;;2.90;;
5209;SDS011;2624;48.048;11.706;2023-08-17T08:26:18;6.27;;;3.80;;
5209;SDS011;2624;48.048;11.706;2023-08-17T08:31:21;20.07;;;7.40;;
5209;SDS011;2624;48.048;11.706;2023-08-17T08:36:22;3.63;;;3.33;;
5209;SDS011;2624;48.048;11.706;2023-08-17T08:41:24;4.17;;;3.77;;
5209;SDS011;2624;48.048;11.706;2023-08-17T08:46:30;3.93;;;3.60;;
5209;SDS011;2624;48.048;11.706;2023-08-17T08:51:33;6.27;;;3.50;;
5209;SDS011;2624;48.048;11.706;2023-08-17T08:56:43;3.17;;;3.07;;
5209;SDS011;2624;48.048;11.706;2023-08-17T09:01:48;3.97;;;3.67;;
5209;SDS011;2624;48.048;11.706;2023-08-17T09:06:51;3.97;;;3.67;;
5209;SDS011;2624;48.048;11.706;2023-08-17T09:11:54;3.90;;;3.60;;
5209;SDS011;2624;48.048;11.706;2023-08-17T09:16:57;3.40;;;3.20;;
5209;SDS011;2624;48.048;11.706;2023-08-17T09:21:59;3.30;;;3.17;;
5209;SDS011;2624;48.048;11.706;2023-08-17T09:27:01;3.70;;;3.43;;
5209;SDS011;2624;48.048;11.706;2023-08-17T09:32:05;3.53;;;3.27;;
5209;SDS011;2624;48.048;11.706;2023-08-17T09:37:08;3.20;;;3.00;;
5209;SDS011;2624;48.048;11.706;2023-08-17T09:42:09;3.60;;;3.30;;
5209;SDS011;2624;48.048;11.706;2023-08-17T09:47:13;3.10;;;2.90;;
5209;SDS011;2624;48.048;11.706;2023-08-17T09:52:15;3.57;;;3.20;;
5209;SDS011;2624;48.048;11.706;2023-08-17T09:57:17;4.53;;;4.17;;
5209;SDS011;2624;48.048;11.706;2023-08-17T10:02:21;3.60;;;3.40;;
5209;SDS011;2624;48.048;11.706;2023-08-17T10:07:28;3.90;;;3.60;;
5209;SDS011;2624;48.048;11.706;2023-08-17T10:12:32;4.70;;;3.40;;
5209;SDS011;2624;48.048;11.706;2023-08-17T10:17:39;3.83;;;3.63;;
5209;SDS011;2624;48.048;11.706;2023-08-17T10:22:53;3.77;;;3.43;;
5209;SDS011;2624;48.048;11.706;2023-08-17T10:28:03;4.63;;;4.23;;
5209;SDS011;2624;48.048;11.706;2023-08-17T10:33:08;3.77;;;3.47;;
5209;SDS011;2624;48.048;11.706;2023-08-17T10:38:10;3.50;;;3.20;;
5209;SDS011;2624;48.048;11.706;2023-08-17T10:43:13;4.30;;;4.00;;
5209;SDS011;2624;48.048;11.706;2023-08-17T10:48:26;3.73;;;3.33;;
5209;SDS011;2624;48.048;11.706;2023-08-17T10:53:33;3.40;;;3.20;;
5209;SDS011;2624;48.048;11.706;2023-08-17T10:58:38;4.00;;;3.70;;
5209;SDS011;2624;48.048;11.706;2023-08-17T11:03:42;3.57;;;3.33;;
5209;SDS011;2624;48.048;11.706;2023-08-17T11:08:52;5.47;;;3.67;;
5209;SDS011;2624;48.048;11.706;2023-08-17T11:13:56;4.47;;;4.17;;
5209;SDS011;2624;48.048;11.706;2023-08-17T11:19:00;4.87;;;3.97;;
5209;SDS011;2624;48.048;11.706;2023-08-17T11:24:02;5.77;;;4.30;;
5209;SDS011;2624;48.048;11.706;2023-08-17T11:29:09;4.73;;;4.10;;
5209;SDS011;2624;48.048;11.706;2023-08-17T11:34:15;4.57;;;4.00;;
5209;SDS011;2624;48.048;11.706;2023-08-17T11:39:16;5.63;;;5.10;;
5209;SDS011;2624;48.048;11.706;2023-08-17T11:44:21;4.37;;;4.07;;
5209;SDS011;2624;48.048;11.706;2023-08-17T11:49:24;5.40;;;5.00;;
5209;SDS011;2624;48.048;11.706;2023-08-17T11:54:26;8.87;;;4.83;;
5209;SDS011;2624;48.048;11.706;2023-08-17T11:59:28;5.93;;;4.87;;
5209;SDS011;2624;48.048;11.706;2023-08-17T12:04:34;6.73;;;5.13;;
5209;SDS011;2624;48.048;11.706;2023-08-17T12:09:36;9.50;;;5.20;;
5209;SDS011;2624;48.048;11.706;2023-08-17T12:14:40;6.50;;;5.97;;
5209;SDS011;2624;48.048;11.706;2023-08-17T12:19:48;5.97;;;5.47;;
5209;SDS011;2624;48.048;11.706;2023-08-17T12:24:50;8.93;;;6.00;;
5209;SDS011;2624;48.048;11.706;2023-08-17T12:29:52;5.97;;;4.87;;
5209;SDS011;2624;48.048;11.706;2023-08-17T12:34:55;4.77;;;4.47;;
5209;SDS011;2624;48.048;11.706;2023-08-17T12:39:57;6.43;;;5.57;;
5209;SDS011;2624;48.048;11.706;2023-08-17T12:44:59;6.33;;;4.90;;
5209;SDS011;2624;48.048;11.706;2023-08-17T12:50:02;5.77;;;5.23;;
5209;SDS011;2624;48.048;11.706;2023-08-17T12:55:04;5.00;;;4.60;;
5209;SDS011;2624;48.048;11.706;2023-08-17T13:00:07;6.20;;;5.57;;
5209;SDS011;2624;48.048;11.706;2023-08-17T13:05:11;6.30;;;4.60;;
5209;SDS011;2624;48.048;11.706;2023-08-17T13:10:13;5.63;;;5.23;;
5209;SDS011;2624;48.048;11.706;2023-08-17T13:15:14;4.70;;;4.23;;
5209;SDS011;2624;48.048;11.706;2023-08-17T13:20:18;8.03;;;4.50;;
5209;SDS011;2624;48.048;11.706;2023-08-17T13:25:19;6.37;;;4.37;;
5209;SDS011;2624;48.048;11.706;2023-08-17T13:30:21;3.70;;;3.50;;
5209;SDS011;2624;48.048;11.706;2023-08-17T13:35:24;4.10;;;3.80;;
5209;SDS011;2624;48.048;11.706;2023-08-17T13:40:26;4.13;;;3.80;;
5209;SDS011;2624;48.048;11.706;2023-08-17T13:45:28;4.87;;;4.47;;
5209;SDS011;2624;48.048;11.706;2023-08-17T13:50:31;5.30;;;5.00;;
5209;SDS011;2624;48.048;11.706;2023-08-17T13:55:32;4.77;;;4.40;;
5209;SDS011;2624;48.048;11.706;2023-08-17T14:00:34;4.40;;;4.10;;
5209;SDS011;2624;48.048;11.706;2023-08-17T14:05:37;4.53;;;4.13;;
5209;SDS011;2624;48.048;11.706;2023-08-17T14:10:39;6.47;;;4.13;;
5209;SDS011;2624;48.048;11.706;2023-08-17T14:15:41;5.23;;;4.73;;
5209;SDS011;2624;48.048;11.706;2023-08-17T14:20:44;5.20;;;4.70;;
5209;SDS011;2624;48.048;11.706;2023-08-17T14:25:46;4.70;;;4.30;;
5209;SDS011;2624;48.048;11.706;2023-08-17T14:30:48;4.30;;;4.00;;
5209;SDS011;2624;48.048;11.706;2023-08-17T14:35:51;4.73;;;4.37;;
5209;SDS011;2624;48.048;11.706;2023-08-17T14:40:52;4.80;;;4.43;;
5209;SDS011;2624;48.048;11.706;2023-08-17T14:45:54;4.20;;;3.90;;
5209;SDS011;2624;48.048;11.706;2023-08-17T14:50:57;4.20;;;3.90;;
5209;SDS011;2624;48.048;11.706;2023-08-17T14:55:59;5.17;;;3.70;;
5209;SDS011;2624;48.048;11.706;2023-08-17T15:01:01;5.67;;;5.17;;
5209;SDS011;2624;48.048;11.706;2023-08-17T15:06:04;5.67;;;5.00;;
5209;SDS011;2624;48.048;11.706;2023-08-17T15:11:06;6.60;;;4.60;;
5209;SDS011;2624;48.048;11.706;2023-08-17T15:16:08;6.33;;;5.10;;
5209;SDS011;2624;48.048;11.706;2023-08-17T15:21:11;14.30;;;5.63;;
5209;SDS011;2624;48.048;11.706;2023-08-17T15:26:13;6.20;;;5.70;;
5209;SDS011;2624;48.048;11.706;2023-08-17T15:31:14;6.87;;;5.10;;
5209;SDS011;2624;48.048;11.706;2023-08-17T15:36:18;9.10;;;5.60;;
5209;SDS011;2624;48.048;11.706;2023-08-17T15:41:21;6.10;;;5.63;;
5209;SDS011;2624;48.048;11.706;2023-08-17T15:46:23;7.30;;;6.63;;
5209;SDS011;2624;48.048;11.706;2023-08-17T15:51:26;8.83;;;6.30;;
5209;SDS011;2624;48.048;11.706;2023-08-17T15:56:28;6.23;;;5.10;;
5209;SDS011;2624;48.048;11.706;2023-08-17T16:01:30;17.50;;;8.73;;
5209;SDS011;2624;48.048;11.706;2023-08-17T16:06:33;14.03;;;7.53;;
5209;SDS011;2624;48.048;11.706;2023-08-17T16:11:35;9.03;;;6.77;;
5209;SDS011;2624;48.048;11.706;2023-08-17T16:16:37;13.60;;;5.50;;
5209;SDS011;2624;48.048;11.706;2023-08-17T16:21:40;12.47;;;5.57;;
5209;SDS011;2624;48.048;11.706;2023-08-17T16:26:42;7.97;;;6.50;;
5209;SDS011;2624;48.048;11.706;2023-08-17T16:31:43;14.73;;;6.67;;
5209;SDS011;2624;48.048;11.706;2023-08-17T16:36:46;5.93;;;5.33;;
5209;SDS011;2624;48.048;11.706;2023-08-17T16:41:48;4.73;;;4.40;;
5209;SDS011;2624;48.048;11.706;2023-08-17T16:46:50;1.90;;;1.80;;
5209;SDS011;2624;48.048;11.706;2023-08-17T16:51:53;3.37;;;2.90;;
5209;SDS011;2624;48.048;11.706;2023-08-17T16:56:55;4.37;;;2.73;;
5209;SDS011;2624;48.048;11.706;2023-08-17T17:01:57;2.00;;;1.90;;
5209;SDS011;2624;48.048;11.706;2023-08-17T17:07:00;2.20;;;2.00;;
5209;SDS011;2624;48.048;11.706;2023-08-17T17:12:02;2.40;;;2.20;;
5209;SDS011;2624;48.048;11.706;2023-08-17T17:17:04;28.07;;;11.00;;
5209;SDS011;2624;48.048;11.706;2023-08-17T17:22:07;9.80;;;4.67;;
5209;SDS011;2624;48.048;11.706;2023-08-17T17:27:10;10.60;;;5.53;;
5209;SDS011;2624;48.048;11.706;2023-08-17T17:32:12;40.33;;;11.27;;
5209;SDS011;2624;48.048;11.706;2023-08-17T17:37:15;33.63;;;11.03;;
5209;SDS011;2624;48.048;11.706;2023-08-17T17:42:17;8.77;;;5.00;;
5209;SDS011;2624;48.048;11.706;2023-08-17T17:47:19;5.30;;;3.27;;
5209;SDS011;2624;48.048;11.706;2023-08-17T17:52:22;2.60;;;2.10;;
5209;SDS011;2624;48.048;11.706;2023-08-17T17:57:27;3.63;;;2.60;;
5209;SDS011;2624;48.048;11.706;2023-08-17T18:02:28;3.13;;;2.40;;
5209;SDS011;2624;48.048;11.706;2023-08-17T18:07:31;2.20;;;2.10;;
5209;SDS011;2624;48.048;11.706;2023-08-17T18:12:33;1.93;;;1.83;;
5209;SDS011;2624;48.048;11.706;2023-08-17T18:17:35;1.57;;;1.47;;
5209;SDS011;2624;48.048;11.706;2023-08-17T18:22:38;3.23;;;2.03;;
5209;SDS011;2624;48.048;11.706;2023-08-17T18:27:40;2.20;;;1.93;;
5209;SDS011;2624;48.048;11.706;2023-08-17T18:32:43;4.73;;;1.90;;
5209;SDS011;2624;48.048;11.706;2023-08-17T18:37:46;5.00;;;2.10;;
5209;SDS011;2624;48.048;11.706;2023-08-17T18:42:48;1.73;;;1.63;;
5209;SDS011;2624;48.048;11.706;2023-08-17T18:47:51;2.00;;;1.80;;
5209;SDS011;2624;48.048;11.706;2023-08-17T18:52:54;11.20;;;2.50;;
5209;SDS011;2624;48.048;11.706;2023-08-17T18:57:57;4.53;;;2.17;;
5209;SDS011;2624;48.048;11.706;2023-08-17T19:02:58;1.93;;;1.60;;
5209;SDS011;2624;48.048;11.706;2023-08-17T19:08:01;1.70;;;1.60;;
5209;SDS011;2624;48.048;11.706;2023-08-17T19:13:03;8.17;;;2.77;;
5209;SDS011;2624;48.048;11.706;2023-08-17T19:18:05;2.70;;;2.10;;
5209;SDS011;2624;48.048;11.706;2023-08-17T19:23:09;4.00;;;2.07;;
5209;SDS011;2624;48.048;11.706;2023-08-17T19:28:10;2.17;;;2.00;;
5209;SDS011;2624;48.048;11.706;2023-08-17T19:33:12;5.33;;;2.40;;
5209;SDS011;2624;48.048;11.706;2023-08-17T19:38:15;3.77;;;2.50;;
5209;SDS011;2624;48.048;11.706;2023-08-17T19:43:17;4.43;;;1.63;;
5209;SDS011;2624;48.048;11.706;2023-08-17T19:48:19;2.00;;;1.80;;
5209;SDS011;2624;48.048;11.706;2023-08-17T19:53:22;2.10;;;2.00;;
5209;SDS011;2624;48.048;11.706;2023-08-17T19:58:23;1.87;;;1.77;;
5209;SDS011;2624;48.048;11.706;2023-08-17T20:03:25;7.20;;;2.07;;
5209;SDS011;2624;48.048;11.706;2023-08-17T20:08:32;1.53;;;1.50;;
5209;SDS011;2624;48.048;11.706;2023-08-17T20:13:34;2.27;;;1.80;;
5209;SDS011;2624;48.048;11.706;2023-08-17T20:18:36;8.33;;;2.17;;
5209;SDS011;2624;48.048;11.706;2023-08-17T20:23:40;2.70;;;2.13;;
5209;SDS011;2624;48.048;11.706;2023-08-17T20:28:43;3.00;;;1.80;;
5209;SDS011;2624;48.048;11.706;2023-08-17T20:33:45;2.57;;;2.30;;
5209;SDS011;2624;48.048;11.706;2023-08-17T20:38:48;2.23;;;2.13;;
5209;SDS011;2624;48.048;11.706;2023-08-17T20:43:51;2.40;;;1.67;;
5209;SDS011;2624;48.048;11.706;2023-08-17T20:48:54;4.53;;;2.50;;
5209;SDS011;2624;48.048;11.706;2023-08-17T20:53:58;2.17;;;2.03;;
5209;SDS011;2624;48.048;11.706;2023-08-17T20:58:59;7.47;;;1.93;;
5209;SDS011;2624;48.048;11.706;2023-08-17T21:04:01;1.93;;;1.77;;
5209;SDS011;2624;48.048;11.706;2023-08-17T21:09:04;1.60;;;1.60;;
5209;SDS011;2624;48.048;11.706;2023-08-17T21:14:06;1.83;;;1.73;;
5209;SDS011;2624;48.048;11.706;2023-08-17T21:19:08;4.17;;;1.60;;
5209;SDS011;2624;48.048;11.706;2023-08-17T21:24:11;3.43;;;1.93;;
5209;SDS011;2624;48.048;11.706;2023-08-17T21:29:13;2.40;;;1.93;;
5209;SDS011;2624;48.048;11.706;2023-08-17T21:34:14;3.83;;;1.90;;
5209;SDS011;2624;48.048;11.706;2023-08-17T21:39:19;1.73;;;1.63;;
5209;SDS011;2624;48.048;11.706;2023-08-17T21:44:21;2.60;;;1.63;;
5209;SDS011;2624;48.048;11.706;2023-08-17T21:49:24;3.30;;;1.53;;
5209;SDS011;2624;48.048;11.706;2023-08-17T21:54:27;2.93;;;2.10;;
5209;SDS011;2624;48.048;11.706;2023-08-17T21:59:29;2.50;;;2.20;;
5209;SDS011;2624;48.048;11.706;2023-08-17T22:04:30;2.73;;;2.23;;
5209;SDS011;2624;48.048;11.706;2023-08-17T22:09:34;2.40;;;1.70;;
5209;SDS011;2624;48.048;11.706;2023-08-17T22:14:36;5.00;;;1.90;;
5209;SDS011;2624;48.048;11.706;2023-08-17T22:19:38;2.47;;;2.00;;
5209;SDS011;2624;48.048;11.706;2023-08-17T22:24:41;5.53;;;2.30;;
5209;SDS011;2624;48.048;11.706;2023-08-17T22:29:43;1.77;;;1.67;;
5209;SDS011;2624;48.048;11.706;2023-08-17T22:34:44;2.37;;;2.10;;
5209;SDS011;2624;48.048;11.706;2023-08-17T22:39:47;8.83;;;2.20;;
5209;SDS011;2624;48.048;11.706;2023-08-17T22:44:49;4.63;;;2.33;;
5209;SDS011;2624;48.048;11.706;2023-08-17T22:49:51;3.07;;;1.80;;
5209;SDS011;2624;48.048;11.706;2023-08-17T22:54:55;3.90;;;2.50;;
5209;SDS011;2624;48.048;11.706;2023-08-17T22:59:59;3.70;;;1.90;;
5209;SDS011;2624;48.048;11.706;2023-08-17T23:05:01;4.03;;;1.73;;
5209;SDS011;2624;48.048;11.706;2023-08-17T23:10:05;3.07;;;1.77;;
5209;SDS011;2624;48.048;11.706;2023-08-17T23:15:07;1.93;;;1.73;;
5209;SDS011;2624;48.048;11.706;2023-08-17T23:20:10;3.30;;;2.23;;
5209;SDS011;2624;48.048;11.706;2023-08-17T23:25:14;2.63;;;2.13;;
5209;SDS011;2624;48.048;11.706;2023-08-17T23:30:16;2.47;;;1.43;;
5209;SDS011;2624;48.048;11.706;2023-08-17T23:35:18;2.43;;;2.23;;
5209;SDS011;2624;48.048;11.706;2023-08-17T23:40:21;4.97;;;1.20;;
5209;SDS011;2624;48.048;11.706;2023-08-17T23:45:23;1.90;;;1.63;;
5209;SDS011;2624;48.048;11.706;2023-08-17T23:50:25;4.93;;;1.90;;
5209;SDS011;2624;48.048;11.706;2023-08-17T23:55:28;2.03;;;1.93;;
